sensor_id;sensor_type;location;lat;lon;timestamp;temperature;humidity
15235;DHT22;7720;51.926;4.488;2023-06-01T00:02:00;12.90;99.90
15235;DHT22;7720;51.926;4.488;2023-06-01T00:07:05;12.80;99.90
15235;DHT22;7720;51.926;4.488;2023-06-01T00:12:09;12.80;99.90
15235;DHT22;7720;51.926;4.488;2023-06-01T00:17:13;12.80;99.90
15235;DHT22;7720;51.926;4.488;2023-06-01T00:22:17;12.80;99.90
15235;DHT22;7720;51.926;4.488;2023-06-01T00:27:20;12.80;99.90
15235;DHT22;7720;51.926;4.488;2023-06-01T00:32:25;12.80;99.90
15235;DHT22;7720;51.926;4.488;2023-06-01T00:37:29;12.80;99.90
15235;DHT22;7720;51.926;4.488;2023-06-01T00:42:32;12.70;99.90
15235;DHT22;7720;51.926;4.488;2023-06-01T00:47:39;12.60;99.90
15235;DHT22;7720;51.926;4.488;2023-06-01T00:52:45;12.50;99.90
15235;DHT22;7720;51.926;4.488;2023-06-01T00:57:49;12.60;99.90
15235;DHT22;7720;51.926;4.488;2023-06-01T01:02:55;12.50;99.90
15235;DHT22;7720;51.926;4.488;2023-06-01T01:08:06;12.60;99.90
15235;DHT22;7720;51.926;4.488;2023-06-01T01:13:13;12.60;99.90
15235;DHT22;7720;51.926;4.488;2023-06-01T01:18:23;12.60;99.90
15235;DHT22;7720;51.926;4.488;2023-06-01T01:23:48;12.50;99.90
15235;DHT22;7720;51.926;4.488;2023-06-01T01:29:06;12.60;99.90
15235;DHT22;7720;51.926;4.488;2023-06-01T01:34:11;12.50;99.90
15235;DHT22;7720;51.926;4.488;2023-06-01T01:39:17;12.50;99.90
15235;DHT22;7720;51.926;4.488;2023-06-01T01:44:22;12.50;99.90
15235;DHT22;7720;51.926;4.488;2023-06-01T01:49:33;12.50;99.90
15235;DHT22;7720;51.926;4.488;2023-06-01T01:54:39;12.40;99.90
15235;DHT22;7720;51.926;4.488;2023-06-01T01:59:46;12.30;99.90
15235;DHT22;7720;51.926;4.488;2023-06-01T02:04:49;12.40;99.90
15235;DHT22;7720;51.926;4.488;2023-06-01T02:09:53;12.50;99.90
15235;DHT22;7720;51.926;4.488;2023-06-01T02:14:58;12.30;99.90
15235;DHT22;7720;51.926;4.488;2023-06-01T02:20:01;12.40;99.90
15235;DHT22;7720;51.926;4.488;2023-06-01T02:25:07;12.40;99.90
15235;DHT22;7720;51.926;4.488;2023-06-01T02:30:12;12.30;99.90
15235;DHT22;7720;51.926;4.488;2023-06-01T02:35:16;12.40;99.90
15235;DHT22;7720;51.926;4.488;2023-06-01T02:40:23;12.30;99.90
15235;DHT22;7720;51.926;4.488;2023-06-01T02:45:28;12.30;99.90
15235;DHT22;7720;51.926;4.488;2023-06-01T02:50:31;12.20;99.90
15235;DHT22;7720;51.926;4.488;2023-06-01T02:55:35;12.20;99.90
15235;DHT22;7720;51.926;4.488;2023-06-01T03:00:53;12.30;99.90
15235;DHT22;7720;51.926;4.488;2023-06-01T03:05:57;12.20;99.90
15235;DHT22;7720;51.926;4.488;2023-06-01T03:11:19;12.10;99.90
15235;DHT22;7720;51.926;4.488;2023-06-01T03:16:24;12.20;99.90
15235;DHT22;7720;51.926;4.488;2023-06-01T03:21:40;12.20;99.90
15235;DHT22;7720;51.926;4.488;2023-06-01T03:26:44;12.30;99.90
15235;DHT22;7720;51.926;4.488;2023-06-01T03:31:49;12.20;99.90
15235;DHT22;7720;51.926;4.488;2023-06-01T03:36:56;12.20;99.90
15235;DHT22;7720;51.926;4.488;2023-06-01T03:41:59;12.20;99.90
15235;DHT22;7720;51.926;4.488;2023-06-01T03:47:04;12.20;99.90
15235;DHT22;7720;51.926;4.488;2023-06-01T03:52:08;12.20;99.90
15235;DHT22;7720;51.926;4.488;2023-06-01T03:57:11;12.20;99.90
15235;DHT22;7720;51.926;4.488;2023-06-01T04:02:16;12.20;99.90
15235;DHT22;7720;51.926;4.488;2023-06-01T04:07:21;12.10;99.90
15235;DHT22;7720;51.926;4.488;2023-06-01T04:12:25;12.10;99.90
15235;DHT22;7720;51.926;4.488;2023-06-01T04:17:29;12.20;99.90
15235;DHT22;7720;51.926;4.488;2023-06-01T04:22:33;12.20;99.90
15235;DHT22;7720;51.926;4.488;2023-06-01T04:27:37;12.10;99.90
15235;DHT22;7720;51.926;4.488;2023-06-01T04:32:48;12.20;99.90
15235;DHT22;7720;51.926;4.488;2023-06-01T04:37:54;12.10;99.90
15235;DHT22;7720;51.926;4.488;2023-06-01T04:42:58;12.10;99.90
15235;DHT22;7720;51.926;4.488;2023-06-01T04:48:07;12.20;99.90
15235;DHT22;7720;51.926;4.488;2023-06-01T04:53:20;12.30;99.90
15235;DHT22;7720;51.926;4.488;2023-06-01T04:58:24;12.20;99.90
15235;DHT22;7720;51.926;4.488;2023-06-01T05:03:29;12.00;99.90
15235;DHT22;7720;51.926;4.488;2023-06-01T05:08:33;12.20;99.90
15235;DHT22;7720;51.926;4.488;2023-06-01T05:13:38;12.10;99.90
15235;DHT22;7720;51.926;4.488;2023-06-01T05:18:44;12.20;99.90
15235;DHT22;7720;51.926;4.488;2023-06-01T05:23:47;12.20;99.90
15235;DHT22;7720;51.926;4.488;2023-06-01T05:28:52;12.20;99.90
15235;DHT22;7720;51.926;4.488;2023-06-01T05:33:56;12.20;99.90
15235;DHT22;7720;51.926;4.488;2023-06-01T05:39:03;12.30;99.90
15235;DHT22;7720;51.926;4.488;2023-06-01T05:44:09;12.20;99.90
15235;DHT22;7720;51.926;4.488;2023-06-01T05:49:14;12.30;99.90
15235;DHT22;7720;51.926;4.488;2023-06-01T05:54:18;12.20;99.90
15235;DHT22;7720;51.926;4.488;2023-06-01T05:59:21;12.40;99.90
15235;DHT22;7720;51.926;4.488;2023-06-01T06:04:27;12.30;99.90
15235;DHT22;7720;51.926;4.488;2023-06-01T06:09:30;12.30;99.90
15235;DHT22;7720;51.926;4.488;2023-06-01T06:14:34;12.60;99.90
15235;DHT22;7720;51.926;4.488;2023-06-01T06:19:38;12.70;99.90
15235;DHT22;7720;51.926;4.488;2023-06-01T06:24:42;12.80;99.90
15235;DHT22;7720;51.926;4.488;2023-06-01T06:29:46;13.00;99.90
15235;DHT22;7720;51.926;4.488;2023-06-01T06:34:50;13.10;99.90
15235;DHT22;7720;51.926;4.488;2023-06-01T06:39:54;13.40;99.90
15235;DHT22;7720;51.926;4.488;2023-06-01T06:44:57;13.40;99.90
15235;DHT22;7720;51.926;4.488;2023-06-01T06:50:02;13.50;99.90
15235;DHT22;7720;51.926;4.488;2023-06-01T06:55:06;13.80;99.90
15235;DHT22;7720;51.926;4.488;2023-06-01T07:00:11;14.00;99.90
15235;DHT22;7720;51.926;4.488;2023-06-01T07:05:18;14.00;99.90
15235;DHT22;7720;51.926;4.488;2023-06-01T07:10:21;14.40;99.90
15235;DHT22;7720;51.926;4.488;2023-06-01T07:15:25;15.00;99.90
15235;DHT22;7720;51.926;4.488;2023-06-01T07:20:30;14.40;99.90
15235;DHT22;7720;51.926;4.488;2023-06-01T07:25:33;14.30;99.90
15235;DHT22;7720;51.926;4.488;2023-06-01T07:30:37;14.40;99.90
15235;DHT22;7720;51.926;4.488;2023-06-01T07:35:42;14.50;99.90
15235;DHT22;7720;51.926;4.488;2023-06-01T07:40:45;15.10;99.90
15235;DHT22;7720;51.926;4.488;2023-06-01T07:45:49;15.10;99.90
15235;DHT22;7720;51.926;4.488;2023-06-01T07:50:54;15.10;99.90
15235;DHT22;7720;51.926;4.488;2023-06-01T07:56:04;15.00;99.90
15235;DHT22;7720;51.926;4.488;2023-06-01T08:01:13;14.90;99.90
15235;DHT22;7720;51.926;4.488;2023-06-01T08:06:18;15.00;99.90
15235;DHT22;7720;51.926;4.488;2023-06-01T08:11:24;15.70;99.90
15235;DHT22;7720;51.926;4.488;2023-06-01T08:16:28;15.50;99.90
15235;DHT22;7720;51.926;4.488;2023-06-01T08:21:34;15.50;99.90
15235;DHT22;7720;51.926;4.488;2023-06-01T08:26:38;16.00;99.90
15235;DHT22;7720;51.926;4.488;2023-06-01T08:31:41;16.10;99.90
15235;DHT22;7720;51.926;4.488;2023-06-01T08:36:46;16.40;99.90
15235;DHT22;7720;51.926;4.488;2023-06-01T08:42:02;16.60;99.90
15235;DHT22;7720;51.926;4.488;2023-06-01T08:47:08;16.30;99.90
15235;DHT22;7720;51.926;4.488;2023-06-01T08:52:18;16.20;99.90
15235;DHT22;7720;51.926;4.488;2023-06-01T08:57:22;16.60;99.90
15235;DHT22;7720;51.926;4.488;2023-06-01T09:02:25;16.40;99.90
15235;DHT22;7720;51.926;4.488;2023-06-01T09:07:31;16.90;99.90
15235;DHT22;7720;51.926;4.488;2023-06-01T09:12:37;17.00;99.90
15235;DHT22;7720;51.926;4.488;2023-06-01T09:17:44;16.90;99.90
15235;DHT22;7720;51.926;4.488;2023-06-01T09:22:50;17.10;99.90
15235;DHT22;7720;51.926;4.488;2023-06-01T09:27:54;17.30;99.90
15235;DHT22;7720;51.926;4.488;2023-06-01T09:33:10;17.20;99.90
15235;DHT22;7720;51.926;4.488;2023-06-01T09:38:22;17.20;99.90
15235;DHT22;7720;51.926;4.488;2023-06-01T09:43:26;17.70;99.90
15235;DHT22;7720;51.926;4.488;2023-06-01T09:48:30;17.30;99.90
15235;DHT22;7720;51.926;4.488;2023-06-01T09:53:41;17.50;99.90
15235;DHT22;7720;51.926;4.488;2023-06-01T09:58:46;17.90;99.90
15235;DHT22;7720;51.926;4.488;2023-06-01T10:03:52;17.80;99.90
15235;DHT22;7720;51.926;4.488;2023-06-01T10:09:00;17.70;99.90
15235;DHT22;7720;51.926;4.488;2023-06-01T10:14:03;17.50;99.90
15235;DHT22;7720;51.926;4.488;2023-06-01T10:19:07;17.60;99.90
15235;DHT22;7720;51.926;4.488;2023-06-01T10:24:12;17.90;99.90
15235;DHT22;7720;51.926;4.488;2023-06-01T10:29:17;17.70;99.90
15235;DHT22;7720;51.926;4.488;2023-06-01T10:34:37;17.40;99.90
15235;DHT22;7720;51.926;4.488;2023-06-01T10:39:43;17.40;99.90
15235;DHT22;7720;51.926;4.488;2023-06-01T10:44:48;17.70;99.90
15235;DHT22;7720;51.926;4.488;2023-06-01T10:50:07;17.70;99.90
15235;DHT22;7720;51.926;4.488;2023-06-01T10:55:26;18.30;99.90
15235;DHT22;7720;51.926;4.488;2023-06-01T11:00:38;18.10;99.90
15235;DHT22;7720;51.926;4.488;2023-06-01T11:05:44;18.30;99.90
15235;DHT22;7720;51.926;4.488;2023-06-01T11:10:57;18.10;99.90
15235;DHT22;7720;51.926;4.488;2023-06-01T11:16:30;17.80;99.90
15235;DHT22;7720;51.926;4.488;2023-06-01T11:21:36;17.80;99.90
15235;DHT22;7720;51.926;4.488;2023-06-01T11:26:45;17.90;99.90
15235;DHT22;7720;51.926;4.488;2023-06-01T11:31:50;17.80;99.90
15235;DHT22;7720;51.926;4.488;2023-06-01T11:36:56;17.70;99.90
15235;DHT22;7720;51.926;4.488;2023-06-01T11:42:06;17.80;99.90
15235;DHT22;7720;51.926;4.488;2023-06-01T11:47:11;17.60;99.90
15235;DHT22;7720;51.926;4.488;2023-06-01T11:52:15;18.20;99.90
15235;DHT22;7720;51.926;4.488;2023-06-01T11:57:21;18.20;99.90
15235;DHT22;7720;51.926;4.488;2023-06-01T12:02:27;18.20;99.90
15235;DHT22;7720;51.926;4.488;2023-06-01T12:07:36;18.50;99.90
15235;DHT22;7720;51.926;4.488;2023-06-01T12:12:47;18.20;99.90
15235;DHT22;7720;51.926;4.488;2023-06-01T12:17:53;18.10;99.90
15235;DHT22;7720;51.926;4.488;2023-06-01T12:23:14;18.20;99.90
15235;DHT22;7720;51.926;4.488;2023-06-01T12:28:20;18.20;99.90
15235;DHT22;7720;51.926;4.488;2023-06-01T12:33:31;18.50;99.90
15235;DHT22;7720;51.926;4.488;2023-06-01T12:38:36;18.10;99.90
15235;DHT22;7720;51.926;4.488;2023-06-01T12:43:44;18.10;99.90
15235;DHT22;7720;51.926;4.488;2023-06-01T12:48:48;18.40;99.90
15235;DHT22;7720;51.926;4.488;2023-06-01T12:53:51;18.00;99.90
15235;DHT22;7720;51.926;4.488;2023-06-01T12:58:56;18.10;99.90
15235;DHT22;7720;51.926;4.488;2023-06-01T13:03:59;17.90;99.90
